Time;durP1;ratioP1;P1;durP2;ratioP2;P2;SDS_P1;SDS_P2;PMS_P1;PMS_P2;Temp;Humidity;BMP_temperature;BMP_pressure;BME280_temperature;BME280_humidity;BME280_pressure;Samples;Min_cycle;Max_cycle;Signal;HPM_P1;HPM_P2
2022/05/07 00:00:34;;;;;;;56.15;34.05;;;12.60;99.90;;;;;;5147588;28;20062;-75
2022/05/07 00:03:07;;;;;;;37.58;25.30;;;12.60;99.90;;;;;;5150142;28;21415;-78
2022/05/07 00:05:39;;;;;;;42.63;27.83;;;12.60;99.90;;;;;;5150069;28;20049;-77
2022/05/07 00:08:12;;;;;;;40.88;24.98;;;12.60;99.90;;;;;;5144485;28;20046;-77
2022/05/07 00:10:44;;;;;;;42.97;27.40;;;12.70;99.90;;;;;;5146923;28;20050;-76
2022/05/07 00:13:17;;;;;;;42.45;27.23;;;12.70;99.90;;;;;;5148120;28;20053;-76
2022/05/07 00:18:40;;;;;;;41.53;26.85;;;12.60;99.90;;;;;;5147737;28;20081;-78
2022/05/07 00:21:12;;;;;;;46.78;28.35;;;12.60;99.90;;;;;;5145849;28;20434;-77
2022/05/07 00:23:45;;;;;;;42.05;27.40;;;12.60;99.90;;;;;;5147790;28;20047;-75
2022/05/07 00:26:17;;;;;;;75.18;37.65;;;12.60;99.90;;;;;;5144903;28;20046;-77
2022/05/07 00:28:49;;;;;;;45.97;29.48;;;12.50;99.90;;;;;;5161550;28;20050;-79
2022/05/07 00:31:23;;;;;;;48.95;29.45;;;12.50;99.90;;;;;;5149325;28;20061;-78
2022/05/07 00:33:55;;;;;;;51.80;30.85;;;12.50;99.90;;;;;;5156691;28;20688;-77
2022/05/07 00:36:34;;;;;;;45.63;29.25;;;12.50;99.90;;;;;;5165618;28;20085;-79
2022/05/07 00:39:07;;;;;;;39.88;25.60;;;12.50;99.90;;;;;;5129253;28;20046;-77
2022/05/07 00:41:40;;;;;;;43.90;28.15;;;12.50;99.90;;;;;;5139120;28;20166;-77
2022/05/07 00:44:12;;;;;;;47.57;30.20;;;12.50;99.90;;;;;;5137380;28;20410;-77
2022/05/07 00:46:46;;;;;;;43.30;28.33;;;12.50;99.90;;;;;;5145271;28;20069;-77
2022/05/07 00:49:19;;;;;;;42.90;28.92;;;12.50;99.90;;;;;;5155837;28;20372;-78
2022/05/07 00:51:52;;;;;;;45.88;29.63;;;12.60;99.90;;;;;;5141767;28;20050;-78
2022/05/07 00:54:25;;;;;;;48.42;30.40;;;12.60;99.90;;;;;;5155528;28;20427;-77
2022/05/07 00:56:58;;;;;;;55.80;33.25;;;12.60;99.90;;;;;;5144597;28;20058;-78
2022/05/07 00:59:31;;;;;;;50.10;33.17;;;12.60;99.90;;;;;;5151093;28;20046;-77
2022/05/07 01:02:04;;;;;;;59.42;34.47;;;12.60;99.90;;;;;;5154739;28;20057;-77
2022/05/07 01:04:36;;;;;;;62.03;37.15;;;12.60;99.90;;;;;;5143217;28;20669;-76
2022/05/07 01:07:09;;;;;;;59.90;35.92;;;12.60;99.90;;;;;;5124335;28;20049;-75
2022/05/07 01:09:42;;;;;;;59.47;37.10;;;12.60;99.90;;;;;;5162232;28;20058;-76
2022/05/07 01:12:15;;;;;;;61.03;36.83;;;12.60;99.90;;;;;;5133585;28;20394;-76
2022/05/07 01:14:47;;;;;;;62.50;37.47;;;12.60;99.90;;;;;;5137987;28;20054;-77
2022/05/07 01:17:20;;;;;;;69.35;40.88;;;12.60;99.90;;;;;;5157164;28;20060;-76
2022/05/07 01:19:54;;;;;;;54.92;35.28;;;12.60;99.90;;;;;;5143363;28;20104;-77
2022/05/07 01:22:30;;;;;;;62.67;37.65;;;12.70;99.90;;;;;;5159733;28;20127;-79
2022/05/07 01:25:02;;;;;;;74.75;42.58;;;12.70;99.90;;;;;;5145213;28;20946;-77
2022/05/07 01:27:35;;;;;;;67.60;39.58;;;12.70;99.90;;;;;;5135654;28;20057;-77
2022/05/07 01:30:08;;;;;;;63.22;38.15;;;12.70;99.90;;;;;;5137224;28;20050;-77
2022/05/07 01:32:41;;;;;;;87.97;46.15;;;12.70;99.90;;;;;;5142800;28;20057;-77
2022/05/07 01:35:13;;;;;;;70.03;41.83;;;12.60;99.90;;;;;;5144009;28;20053;-77
2022/05/07 01:37:48;;;;;;;62.60;38.15;;;12.60;99.90;;;;;;5134567;28;20058;-76
2022/05/07 01:40:20;;;;;;;73.95;41.92;;;12.60;99.90;;;;;;5144881;28;20051;-76
2022/05/07 01:42:57;;;;;;;82.03;45.60;;;12.60;99.90;;;;;;5156661;28;20049;-77
2022/05/07 01:45:30;;;;;;;68.93;40.55;;;12.60;99.90;;;;;;5159572;28;20046;-76
2022/05/07 01:48:11;;;;;;;81.22;45.17;;;12.60;99.90;;;;;;5152087;28;20043;-78
2022/05/07 01:50:48;;;;;;;;;;;12.60;99.90;;;;;;5142960;28;20062;-77
2022/05/07 01:53:25;;;;;;;60.35;37.15;;;12.50;99.90;;;;;;5119330;28;19930;-78
2022/05/07 01:55:59;;;;;;;94.20;46.17;;;12.50;99.90;;;;;;5163619;28;20054;-78
2022/05/07 01:58:45;;;;;;;71.25;40.55;;;12.50;99.90;;;;;;5154698;28;20053;-75
2022/05/07 02:01:18;;;;;;;54.78;33.95;;;12.50;99.90;;;;;;5120440;28;20652;-76
2022/05/07 02:03:51;;;;;;;54.80;36.00;;;12.60;99.90;;;;;;5134937;28;20057;-76
2022/05/07 02:06:28;;;;;;;67.53;40.80;;;12.50;99.90;;;;;;5144912;28;20053;-76
2022/05/07 02:09:00;;;;;;;92.28;46.22;;;12.50;99.90;;;;;;5150185;28;20972;-79
2022/05/07 02:11:36;;;;;;;64.43;40.25;;;12.50;99.90;;;;;;5164138;28;20059;-77
2022/05/07 02:14:10;;;;;;;76.53;43.90;;;12.50;99.90;;;;;;5147096;28;20058;-77
2022/05/07 02:16:42;;;;;;;97.07;50.38;;;12.50;99.90;;;;;;5137764;28;20106;-76
2022/05/07 02:19:15;;;;;;;88.18;47.95;;;12.40;99.90;;;;;;5150888;28;20046;-78
2022/05/07 02:21:47;;;;;;;78.05;44.65;;;12.40;99.90;;;;;;5139050;28;20062;-75
2022/05/07 02:24:20;;;;;;;77.32;46.38;;;12.40;99.90;;;;;;5143935;28;20049;-77
2022/05/07 02:26:52;;;;;;;74.45;40.15;;;12.40;99.90;;;;;;5162432;28;20042;-76
2022/05/07 02:29:25;;;;;;;78.88;43.60;;;12.50;99.90;;;;;;5164718;28;20054;-76
2022/05/07 02:32:05;;;;;;;71.25;39.72;;;12.40;99.90;;;;;;5161806;28;20388;-77
2022/05/07 02:34:42;;;;;;;84.50;44.63;;;12.40;99.90;;;;;;5137192;28;20054;-76
2022/05/07 02:37:23;;;;;;;65.13;39.55;;;12.40;99.90;;;;;;5132629;28;20589;-75
2022/05/07 02:39:58;;;;;;;77.88;43.92;;;12.40;99.90;;;;;;5159759;28;20054;-76
2022/05/07 02:42:39;;;;;;;;;;;12.50;99.90;;;;;;5150770;28;20395;-76
2022/05/07 02:45:15;;;;;;;85.25;46.67;;;12.40;99.90;;;;;;5150780;28;20301;-78
2022/05/07 02:47:50;;;;;;;79.07;45.35;;;12.40;99.90;;;;;;5164415;28;20503;-77
2022/05/07 02:50:25;;;;;;;80.30;45.25;;;12.40;99.90;;;;;;5152832;28;20050;-75
2022/05/07 02:52:57;;;;;;;71.20;42.60;;;12.40;99.90;;;;;;5144128;28;20077;-77
2022/05/07 02:55:31;;;;;;;96.00;50.83;;;12.40;99.90;;;;;;5164652;28;20081;-78
2022/05/07 02:58:03;;;;;;;71.32;43.15;;;12.40;99.90;;;;;;5163825;28;20058;-76
2022/05/07 03:00:36;;;;;;;69.40;44.22;;;12.40;99.90;;;;;;5163498;28;20057;-78
2022/05/07 03:03:08;;;;;;;73.10;44.42;;;12.40;99.90;;;;;;5158594;28;20057;-78
2022/05/07 03:05:40;;;;;;;82.68;47.60;;;12.50;99.90;;;;;;5164749;28;20057;-77
2022/05/07 03:08:14;;;;;;;106.30;53.83;;;12.40;99.90;;;;;;5127915;28;20058;-78
2022/05/07 03:10:47;;;;;;;105.03;55.05;;;12.50;99.90;;;;;;5144574;28;20069;-77
2022/05/07 03:13:20;;;;;;;;;;;12.50;99.90;;;;;;5107155;28;21300;-76
2022/05/07 03:15:52;;;;;;;95.10;50.72;;;12.40;99.90;;;;;;5135459;28;20390;-77
2022/05/07 03:18:25;;;;;;;106.65;54.60;;;12.40;99.90;;;;;;5151546;28;20050;-76
2022/05/07 03:21:01;;;;;;;131.13;61.38;;;12.40;99.90;;;;;;5154327;28;20049;-77
2022/05/07 03:23:34;;;;;;;85.35;49.50;;;12.40;99.90;;;;;;5161881;28;20042;-78
2022/05/07 03:26:12;;;;;;;114.57;57.08;;;12.40;99.90;;;;;;5163252;28;20503;-78
2022/05/07 03:28:44;;;;;;;88.00;49.60;;;12.40;99.90;;;;;;5132308;28;20055;-77
2022/05/07 03:31:18;;;;;;;109.35;55.72;;;12.40;99.90;;;;;;5134227;28;20057;-77
2022/05/07 03:33:51;;;;;;;96.43;51.40;;;12.40;99.90;;;;;;5139655;28;20062;-77
2022/05/07 03:36:28;;;;;;;87.35;51.13;;;12.40;99.90;;;;;;5164508;28;20061;-78
2022/05/07 03:39:01;;;;;;;99.40;54.22;;;12.40;99.90;;;;;;5122404;28;20851;-75
2022/05/07 03:41:38;;;;;;;113.40;58.40;;;12.50;99.90;;;;;;5149068;28;20061;-76
2022/05/07 03:44:12;;;;;;;101.43;55.40;;;12.50;99.90;;;;;;5151298;28;20045;-76
2022/05/07 03:46:44;;;;;;;117.22;57.83;;;12.50;99.90;;;;;;5146478;28;20533;-77
2022/05/07 03:49:17;;;;;;;93.47;51.47;;;12.50;99.90;;;;;;5133422;28;21013;-77
2022/05/07 03:54:43;;;;;;;93.75;52.28;;;12.50;99.90;;;;;;5155130;28;20034;-76
2022/05/07 03:57:16;;;;;;;110.70;55.15;;;12.50;99.90;;;;;;5145613;28;20042;-77
2022/05/07 03:59:49;;;;;;;101.97;54.15;;;12.50;99.90;;;;;;5144406;28;20066;-76
2022/05/07 04:02:23;;;;;;;109.00;55.72;;;12.50;99.90;;;;;;5150627;28;20085;-77
2022/05/07 04:05:00;;;;;;;79.80;46.55;;;12.50;99.90;;;;;;5149193;28;20537;-77
2022/05/07 04:07:34;;;;;;;83.50;48.88;;;12.50;99.90;;;;;;5157933;28;20045;-77
2022/05/07 04:10:12;;;;;;;100.82;53.22;;;12.50;99.90;;;;;;5131610;28;20046;-76
2022/05/07 04:12:51;;;;;;;112.13;56.65;;;12.50;99.90;;;;;;5134238;28;20047;-78
2022/05/07 04:15:29;;;;;;;175.63;67.00;;;12.50;99.90;;;;;;5151686;28;20978;-78
2022/05/07 04:18:07;;;;;;;133.02;60.50;;;12.50;99.90;;;;;;5141426;28;21026;-77
2022/05/07 04:20:43;;;;;;;76.25;45.50;;;12.50;99.90;;;;;;5157761;28;20933;-76
2022/05/07 04:23:20;;;;;;;85.40;50.13;;;12.50;99.90;;;;;;5114145;28;20050;-79
2022/05/07 04:25:53;;;;;;;108.20;55.97;;;12.50;99.90;;;;;;5164868;28;20030;-78
2022/05/07 04:28:28;;;;;;;101.15;54.40;;;12.50;99.90;;;;;;5121194;28;20053;-77
2022/05/07 04:31:02;;;;;;;125.75;58.60;;;12.50;99.90;;;;;;5135319;28;20410;-79
2022/05/07 04:33:38;;;;;;;80.78;48.67;;;12.50;99.90;;;;;;5161270;28;20083;-78
2022/05/07 04:36:15;;;;;;;92.13;51.85;;;12.60;99.90;;;;;;5151186;28;20057;-76
2022/05/07 04:38:49;;;;;;;131.63;60.17;;;12.60;99.90;;;;;;5145972;28;20053;-77
2022/05/07 04:41:30;;;;;;;116.20;58.80;;;12.60;99.90;;;;;;5144756;28;20045;-76
2022/05/07 04:44:02;;;;;;;104.25;55.03;;;12.60;99.90;;;;;;5136511;28;20666;-79
2022/05/07 04:46:37;;;;;;;95.22;50.80;;;12.60;99.90;;;;;;5144479;28;20050;-77
2022/05/07 04:49:18;;;;;;;94.63;52.65;;;12.60;99.90;;;;;;5141470;28;20649;-76
2022/05/07 04:51:51;;;;;;;97.22;52.53;;;12.60;99.90;;;;;;5124910;28;20054;-78
2022/05/07 04:54:28;;;;;;;80.45;48.67;;;12.60;99.90;;;;;;5122569;28;20053;-78
2022/05/07 04:57:02;;;;;;;115.50;56.22;;;12.60;99.90;;;;;;5128623;28;20050;-75
2022/05/07 04:59:54;;;;;;;95.60;50.47;;;12.70;99.90;;;;;;5154393;28;20529;-77
2022/05/07 05:02:44;;;;;;;89.75;49.33;;;12.70;99.90;;;;;;5117002;28;20072;-75
2022/05/07 05:05:20;;;;;;;91.10;50.38;;;12.70;99.90;;;;;;5133447;28;20050;-76
2022/05/07 05:08:01;;;;;;;79.43;44.10;;;12.70;99.90;;;;;;5131081;28;20565;-75
2022/05/07 05:10:33;;;;;;;115.30;54.92;;;12.70;99.90;;;;;;5160672;28;21711;-77
2022/05/07 05:13:06;;;;;;;106.73;52.90;;;12.70;99.90;;;;;;5159975;28;20053;-76
2022/05/07 05:15:42;;;;;;;83.22;47.33;;;12.70;99.90;;;;;;5135246;28;20058;-76
2022/05/07 05:18:27;;;;;;;65.82;42.65;;;12.80;99.90;;;;;;5125155;28;20058;-76
2022/05/07 05:21:00;;;;;;;76.87;44.17;;;12.80;99.90;;;;;;5137853;28;20061;-76
2022/05/07 05:23:49;;;;;;;75.07;42.75;;;12.80;99.90;;;;;;5133337;28;20053;-76
2022/05/07 05:26:22;;;;;;;76.05;43.88;;;12.70;99.90;;;;;;5127729;28;20073;-74
2022/05/07 05:28:59;;;;;;;75.47;42.25;;;12.70;99.90;;;;;;5149908;28;20054;-75
2022/05/07 05:31:32;;;;;;;66.85;38.60;;;12.80;99.90;;;;;;5158130;28;20052;-78
2022/05/07 05:34:12;;;;;;;68.63;40.85;;;12.80;99.90;;;;;;5157061;28;20046;-79
2022/05/07 05:36:57;;;;;;;74.35;41.40;;;12.80;99.90;;;;;;5116636;28;20278;-81
2022/05/07 05:39:31;;;;;;;59.53;36.33;;;12.80;99.90;;;;;;5124154;28;20065;-80
2022/05/07 05:42:04;;;;;;;66.63;39.63;;;12.80;99.90;;;;;;5131826;28;20436;-77
2022/05/07 05:44:41;;;;;;;65.72;38.28;;;12.90;99.90;;;;;;5130036;28;20042;-80
2022/05/07 05:47:17;;;;;;;69.93;39.85;;;12.80;99.90;;;;;;5127038;28;20054;-79
2022/05/07 05:49:55;;;;;;;60.03;36.97;;;12.80;99.90;;;;;;5134186;28;20510;-81
2022/05/07 05:52:36;;;;;;;66.43;39.10;;;12.80;99.90;;;;;;5131806;28;20446;-80
2022/05/07 05:55:10;;;;;;;57.38;36.10;;;12.80;99.90;;;;;;5132446;28;20053;-81
2022/05/07 05:57:44;;;;;;;59.60;37.63;;;12.80;99.90;;;;;;5131480;28;20636;-82
2022/05/07 06:00:19;;;;;;;60.63;35.97;;;12.80;99.90;;;;;;5133311;28;20050;-80
2022/05/07 06:02:53;;;;;;;61.60;35.65;;;12.80;99.90;;;;;;5151457;28;20058;-81
2022/05/07 06:05:32;;;;;;;52.80;34.42;;;12.80;99.90;;;;;;5122216;28;20047;-81
2022/05/07 06:08:05;;;;;;;56.42;35.08;;;12.80;99.90;;;;;;5116428;28;20057;-80
2022/05/07 06:10:41;;;;;;;53.15;34.40;;;12.80;99.90;;;;;;5138663;28;20100;-80
2022/05/07 06:13:15;;;;;;;;;;;12.80;99.90;;;;;;5104942;28;20046;-79
2022/05/07 06:15:54;;;;;;;55.47;34.15;;;12.70;99.90;;;;;;5151953;28;19936;-80
2022/05/07 06:18:29;;;;;;;59.15;36.25;;;12.70;99.90;;;;;;5142411;28;20964;-80
2022/05/07 06:21:07;;;;;;;57.22;34.08;;;12.70;99.90;;;;;;5134917;28;20042;-79
2022/05/07 06:23:44;;;;;;;55.20;34.80;;;12.70;99.90;;;;;;5153666;28;20753;-81
2022/05/07 06:29:14;;;;;;;69.95;37.65;;;12.70;99.90;;;;;;5137117;28;20049;-80
2022/05/07 06:31:47;;;;;;;;;;;12.70;99.90;;;;;;5155759;28;20054;-82
2022/05/07 06:34:22;;;;;;;57.35;33.75;;;12.60;99.90;;;;;;5129937;28;19929;-81
2022/05/07 06:36:58;;;;;;;60.90;35.63;;;12.60;99.90;;;;;;5143361;28;20042;-81
2022/05/07 06:39:34;;;;;;;64.80;37.40;;;12.70;99.90;;;;;;5156621;28;20046;-79
2022/05/07 06:42:08;;;;;;;59.55;36.42;;;12.70;99.90;;;;;;5157789;28;20053;-79
2022/05/07 06:44:49;;;;;;;69.75;37.60;;;12.70;99.90;;;;;;5141035;28;20287;-81
2022/05/07 06:47:22;;;;;;;55.40;34.05;;;12.70;99.90;;;;;;5132552;28;20644;-79
2022/05/07 06:49:55;;;;;;;50.55;30.95;;;12.80;99.90;;;;;;5112380;28;20051;-80
2022/05/07 06:52:28;;;;;;;53.15;32.63;;;12.80;99.90;;;;;;5134594;28;20050;-79
2022/05/07 06:55:00;;;;;;;52.13;33.38;;;12.80;99.90;;;;;;5141722;28;20042;-79
2022/05/07 06:57:34;;;;;;;53.90;32.30;;;12.80;99.90;;;;;;5129849;28;20491;-80
2022/05/07 07:00:07;;;;;;;53.38;32.28;;;12.80;99.90;;;;;;5138171;28;20050;-81
2022/05/07 07:02:40;;;;;;;55.58;34.80;;;12.80;99.90;;;;;;5144560;28;20453;-80
2022/05/07 07:05:13;;;;;;;55.35;32.65;;;12.80;99.90;;;;;;5123634;28;20049;-80
2022/05/07 07:07:45;;;;;;;62.35;35.05;;;12.80;99.90;;;;;;5125827;28;20038;-79
2022/05/07 07:10:18;;;;;;;56.67;32.35;;;12.80;99.90;;;;;;5135493;28;20038;-82
2022/05/07 07:12:50;;;;;;;52.53;30.92;;;12.80;99.90;;;;;;5134154;28;20053;-80
2022/05/07 07:15:24;;;;;;;46.55;30.17;;;12.80;99.90;;;;;;5123942;28;20053;-78
2022/05/07 07:17:56;;;;;;;41.45;28.33;;;12.80;99.90;;;;;;5149508;28;20069;-80
2022/05/07 07:20:35;;;;;;;44.42;29.55;;;12.90;99.90;;;;;;5135903;28;20588;-80
2022/05/07 07:23:11;;;;;;;40.25;27.65;;;12.90;99.90;;;;;;5128683;28;20055;-79
2022/05/07 07:25:44;;;;;;;46.78;29.48;;;12.90;99.90;;;;;;5147709;28;20050;-79
2022/05/07 07:28:16;;;;;;;46.97;29.08;;;12.90;99.90;;;;;;5117644;28;20065;-80
2022/05/07 07:30:49;;;;;;;44.75;29.55;;;12.90;99.90;;;;;;5132859;28;20050;-80
2022/05/07 07:33:21;;;;;;;45.88;30.95;;;12.90;99.90;;;;;;5132360;28;20050;-80
2022/05/07 07:35:53;;;;;;;51.75;31.48;;;12.90;99.90;;;;;;5132264;28;20057;-79
2022/05/07 07:38:30;;;;;;;52.78;32.97;;;12.90;99.90;;;;;;5134215;28;20077;-80
2022/05/07 07:41:05;;;;;;;53.05;33.75;;;12.90;99.90;;;;;;5130508;28;20069;-78
2022/05/07 07:43:40;;;;;;;56.83;34.00;;;12.90;99.90;;;;;;5108622;28;20054;-78
2022/05/07 07:49:09;;;;;;;45.50;30.35;;;12.90;99.90;;;;;;5112241;28;20050;-79
2022/05/07 07:51:42;;;;;;;49.28;31.42;;;12.90;99.90;;;;;;5126518;28;20053;-78
2022/05/07 07:54:14;;;;;;;46.83;31.73;;;12.90;99.90;;;;;;5113980;28;20342;-80
2022/05/07 07:56:47;;;;;;;49.45;31.92;;;13.00;99.90;;;;;;5102331;28;20057;-77
2022/05/07 07:59:19;;;;;;;53.03;32.95;;;13.00;99.90;;;;;;5129850;28;20068;-80
2022/05/07 08:01:52;;;;;;;53.55;35.55;;;12.90;99.90;;;;;;5118166;28;20061;-79
2022/05/07 08:04:27;;;;;;;49.67;31.53;;;13.00;99.90;;;;;;5128969;28;20043;-79
2022/05/07 08:12:42;;;;;;;48.05;30.45;;;12.90;99.90;;;;;;5143350;28;20046;-80
2022/05/07 08:15:14;;;;;;;41.85;28.33;;;13.00;99.90;;;;;;5130652;28;20061;-82
2022/05/07 08:17:48;;;;;;;51.73;33.53;;;13.00;99.90;;;;;;5126212;28;20048;-81
2022/05/07 08:20:20;;;;;;;39.65;27.60;;;13.00;99.90;;;;;;5106862;28;20055;-81
2022/05/07 08:22:54;;;;;;;41.95;27.67;;;13.00;99.90;;;;;;5117731;28;20062;-82
2022/05/07 08:25:27;;;;;;;41.75;29.02;;;13.00;99.90;;;;;;5135661;28;20042;-81
2022/05/07 08:27:59;;;;;;;39.38;27.40;;;13.00;99.90;;;;;;5127574;28;20053;-80
2022/05/07 08:30:32;;;;;;;43.35;28.92;;;13.00;99.90;;;;;;5128639;28;20046;-79
2022/05/07 08:33:04;;;;;;;41.15;27.92;;;13.00;99.90;;;;;;5118222;28;20118;-80
2022/05/07 08:35:37;;;;;;;40.72;27.80;;;13.10;99.90;;;;;;5129393;28;20061;-81
2022/05/07 08:38:10;;;;;;;35.97;24.63;;;13.00;99.90;;;;;;5145532;28;20057;-83
2022/05/07 08:40:43;;;;;;;36.50;25.90;;;13.10;99.90;;;;;;5113268;28;20066;-82
2022/05/07 08:43:16;;;;;;;40.08;26.70;;;13.10;99.90;;;;;;5123250;28;20061;-81
2022/05/07 08:45:49;;;;;;;43.67;28.80;;;13.10;99.90;;;;;;5126728;28;20050;-81
2022/05/07 08:48:21;;;;;;;40.33;27.20;;;13.20;99.90;;;;;;5131950;28;20046;-81
2022/05/07 08:50:57;;;;;;;46.17;28.40;;;13.20;99.90;;;;;;5139906;28;20309;-82
2022/05/07 08:53:30;;;;;;;47.10;29.87;;;13.10;99.90;;;;;;5142966;28;20069;-80
2022/05/07 08:56:03;;;;;;;43.47;29.77;;;13.10;99.90;;;;;;5124695;28;20061;-80
2022/05/07 08:58:35;;;;;;;48.00;29.95;;;13.00;99.90;;;;;;5135737;28;20066;-80
2022/05/07 09:01:07;;;;;;;51.33;32.22;;;13.00;99.90;;;;;;5137199;28;20060;-80
2022/05/07 09:03:44;;;;;;;41.72;27.20;;;13.00;99.90;;;;;;5138076;28;20579;-81
2022/05/07 09:06:27;;;;;;;49.78;30.55;;;13.00;99.90;;;;;;5135760;28;20508;-81
2022/05/07 09:08:59;;;;;;;42.90;28.73;;;12.90;99.90;;;;;;5127814;28;20089;-80
2022/05/07 09:11:43;;;;;;;45.92;29.42;;;13.00;99.90;;;;;;5139680;28;20065;-79
2022/05/07 09:14:19;;;;;;;44.92;29.65;;;13.00;99.90;;;;;;5115057;28;20050;-80
2022/05/07 09:16:51;;;;;;;46.35;30.70;;;13.00;99.90;;;;;;5149349;28;20812;-81
2022/05/07 09:19:33;;;;;;;42.25;26.60;;;13.00;99.90;;;;;;5133535;28;20054;-80
2022/05/07 09:22:06;;;;;;;42.47;27.50;;;13.00;99.90;;;;;;5121002;28;20161;-80
2022/05/07 09:24:40;;;;;;;42.08;28.73;;;12.90;99.90;;;;;;5135806;28;20057;-80
2022/05/07 09:27:17;;;;;;;40.65;27.67;;;13.00;99.90;;;;;;5111633;28;20057;-79
2022/05/07 09:29:59;;;;;;;41.67;27.50;;;13.00;99.90;;;;;;4454303;28;10000318;-82
2022/05/07 09:32:36;;;;;;;46.10;29.43;;;13.00;99.90;;;;;;5141645;28;20054;-81
2022/05/07 09:38:05;;;;;;;41.45;26.38;;;13.10;99.90;;;;;;5139912;28;20050;-80
2022/05/07 09:40:42;;;;;;;39.87;25.90;;;13.10;99.90;;;;;;5140361;28;20578;-80
2022/05/07 09:43:15;;;;;;;43.53;26.98;;;13.10;99.90;;;;;;5128887;28;20306;-81
2022/05/07 09:45:47;;;;;;;38.88;25.60;;;13.10;99.90;;;;;;5131514;28;20058;-81
2022/05/07 09:48:20;;;;;;;33.85;23.95;;;13.20;99.90;;;;;;5138516;28;20046;-81
2022/05/07 09:50:53;;;;;;;33.72;23.10;;;13.20;99.90;;;;;;5134973;28;20043;-81
2022/05/07 09:59:11;;;;;;;43.50;26.20;;;13.40;99.90;;;;;;5134930;28;20058;-82
2022/05/07 10:02:05;;;;;;;31.73;22.20;;;13.40;99.90;;;;;;5145264;28;20061;-81
2022/05/07 10:05:04;;;;;;;33.85;22.58;;;13.40;99.90;;;;;;5157263;28;20470;-82
2022/05/07 10:07:58;;;;;;;38.83;25.25;;;13.40;99.90;;;;;;5143857;28;20050;-82
2022/05/07 10:10:36;;;;;;;32.83;22.33;;;13.50;99.90;;;;;;5149166;28;20070;-82
2022/05/07 10:13:09;;;;;;;34.03;23.60;;;13.50;99.90;;;;;;5136624;28;20058;-82
2022/05/07 10:15:44;;;;;;;37.83;23.27;;;13.60;99.90;;;;;;5162364;28;20521;-82
2022/05/07 10:18:20;;;;;;;35.88;25.13;;;13.70;99.90;;;;;;5142551;28;20051;-81
2022/05/07 10:20:52;;;;;;;37.13;25.25;;;13.80;99.90;;;;;;5135467;28;20053;-81
2022/05/07 10:23:28;;;;;;;36.00;24.70;;;13.80;99.90;;;;;;5128650;28;20061;-81
2022/05/07 10:26:02;;;;;;;36.88;26.08;;;13.90;99.90;;;;;;5132575;28;20414;-81
2022/05/07 10:28:40;;;;;;;40.08;27.05;;;14.00;99.90;;;;;;5149330;28;20047;-80
2022/05/07 10:31:18;;;;;;;34.92;24.95;;;14.00;99.90;;;;;;5124396;28;20058;-81
2022/05/07 10:33:52;;;;;;;34.85;24.55;;;14.10;99.90;;;;;;5144128;28;20058;-80
2022/05/07 10:36:35;;;;;;;40.92;27.50;;;14.20;99.90;;;;;;5136543;28;20054;-82
2022/05/07 10:39:08;;;;;;;35.97;24.98;;;14.30;99.90;;;;;;5130564;28;20054;-81
2022/05/07 10:41:47;;;;;;;38.00;24.63;;;14.50;99.90;;;;;;5153074;28;20066;-82
2022/05/07 10:44:34;;;;;;;34.92;25.00;;;14.60;99.90;;;;;;5120917;28;20437;-82
2022/05/07 10:47:15;;;;;;;31.13;22.88;;;14.60;99.90;;;;;;5138609;28;20057;-81
2022/05/07 10:49:51;;;;;;;34.50;24.15;;;14.50;99.90;;;;;;5155544;28;20049;-81
2022/05/07 10:52:28;;;;;;;34.45;25.17;;;14.40;99.90;;;;;;5121992;28;20054;-81
2022/05/07 10:55:17;;;;;;;36.05;26.23;;;14.30;99.90;;;;;;5133745;28;20713;-80
2022/05/07 10:57:51;;;;;;;37.40;25.77;;;14.30;99.90;;;;;;5120841;28;20062;-81
2022/05/07 11:00:25;;;;;;;37.30;26.48;;;14.10;99.90;;;;;;5125361;28;20054;-82
2022/05/07 11:02:58;;;;;;;34.67;25.10;;;14.10;99.90;;;;;;5138476;28;20985;-81
2022/05/07 11:05:35;;;;;;;41.10;25.87;;;14.00;99.90;;;;;;5120423;28;20051;-82
2022/05/07 11:08:09;;;;;;;33.85;24.02;;;14.00;99.90;;;;;;5128606;28;20900;-81
2022/05/07 11:10:42;;;;;;;;;;;14.00;99.90;;;;;;5130941;28;20050;-81
2022/05/07 11:13:15;;;;;;;39.35;26.73;;;13.90;99.90;;;;;;5143249;28;20655;-81
2022/05/07 11:15:50;;;;;;;37.38;24.20;;;13.90;99.90;;;;;;5136019;28;20050;-82
2022/05/07 11:18:22;;;;;;;37.25;26.80;;;13.90;99.90;;;;;;5129085;28;20045;-82
2022/05/07 11:21:03;;;;;;;46.33;27.98;;;13.90;99.90;;;;;;5125211;28;20070;-82
2022/05/07 11:23:36;;;;;;;36.40;25.15;;;13.90;99.90;;;;;;5115682;28;20049;-81
2022/05/07 11:26:13;;;;;;;37.28;25.50;;;13.80;99.90;;;;;;5116847;28;20050;-82
2022/05/07 11:28:47;;;;;;;37.42;26.63;;;13.90;99.90;;;;;;5130311;28;20058;-80
2022/05/07 11:31:30;;;;;;;40.42;26.40;;;13.90;99.90;;;;;;5095125;28;20046;-81
2022/05/07 11:34:09;;;;;;;31.92;23.85;;;13.90;99.90;;;;;;5125145;28;21503;-80
2022/05/07 11:36:41;;;;;;;33.95;23.85;;;13.90;99.90;;;;;;5109425;28;20050;-82
2022/05/07 11:39:15;;;;;;;33.90;24.77;;;14.00;99.90;;;;;;5126513;28;20042;-80
2022/05/07 11:41:55;;;;;;;;;;;14.00;99.90;;;;;;5121169;28;20057;-81
2022/05/07 11:47:23;;;;;;;24.70;19.52;;;13.90;99.90;;;;;;5123210;28;20042;-81
2022/05/07 11:50:04;;;;;;;28.85;20.80;;;13.90;99.90;;;;;;5127068;28;20058;-81
2022/05/07 11:52:37;;;;;;;25.20;19.95;;;13.90;99.90;;;;;;5127864;28;21236;-79
2022/05/07 11:55:09;;;;;;;23.58;18.70;;;13.90;99.90;;;;;;5127739;28;20042;-80
2022/05/07 11:57:44;;;;;;;25.50;19.67;;;14.00;99.90;;;;;;5123971;28;20066;-81
2022/05/07 12:00:20;;;;;;;29.40;21.00;;;14.20;99.90;;;;;;5134446;28;20050;-80
2022/05/07 12:02:55;;;;;;;22.38;16.42;;;14.30;99.90;;;;;;5094986;28;20593;-80
2022/05/07 12:05:39;;;;;;;23.77;18.38;;;14.30;99.90;;;;;;5119263;28;20042;-81
2022/05/07 12:08:16;;;;;;;;;;;14.40;99.90;;;;;;5124823;28;20046;-81
2022/05/07 12:10:51;;;;;;;22.33;16.60;;;14.40;99.90;;;;;;5141477;28;19926;-81
2022/05/07 12:13:24;;;;;;;21.38;16.70;;;14.60;99.90;;;;;;5129363;28;20057;-81
2022/05/07 12:18:51;;;;;;;18.17;14.52;;;15.00;99.90;;;;;;5130904;28;20042;-82
2022/05/07 12:29:59;;;;;;;14.68;12.90;;;15.50;99.90;;;;;;5140368;28;20050;-80
2022/05/07 12:32:32;;;;;;;17.35;13.73;;;15.60;99.90;;;;;;5118998;28;21292;-79
2022/05/07 12:35:05;;;;;;;17.60;13.13;;;15.70;99.90;;;;;;5112220;28;20939;-79
2022/05/07 12:37:38;;;;;;;15.18;12.70;;;15.70;99.90;;;;;;5128093;28;20057;-80
2022/05/07 12:40:12;;;;;;;16.10;14.00;;;15.80;99.90;;;;;;5139710;28;21044;-80
2022/05/07 12:42:45;;;;;;;21.48;15.73;;;15.80;99.90;;;;;;5115297;28;20065;-83
2022/05/07 12:45:19;;;;;;;18.60;15.83;;;15.90;99.90;;;;;;5133000;28;20042;-83
2022/05/07 12:47:51;;;;;;;22.20;16.73;;;16.00;99.90;;;;;;4790615;28;10000538;-84
2022/05/07 12:50:24;;;;;;;20.20;16.17;;;16.00;99.90;;;;;;5135150;28;20161;-81
2022/05/07 12:52:56;;;;;;;20.98;17.13;;;16.10;99.90;;;;;;5130395;28;20057;-80
2022/05/07 12:55:29;;;;;;;21.08;17.17;;;16.10;99.90;;;;;;5133692;28;20054;-81
2022/05/07 12:58:01;;;;;;;21.38;17.17;;;16.10;99.90;;;;;;5141804;28;20046;-81
2022/05/07 13:00:33;;;;;;;21.00;17.45;;;16.20;99.90;;;;;;5141822;28;20065;-80
2022/05/07 13:03:08;;;;;;;21.38;17.40;;;16.30;99.90;;;;;;5138992;28;20062;-80
2022/05/07 13:05:40;;;;;;;23.23;15.75;;;16.30;99.90;;;;;;5160811;28;20133;-80
2022/05/07 13:08:28;;;;;;;19.88;17.15;;;16.30;99.90;;;;;;5146902;28;20516;-81
2022/05/07 13:11:01;;;;;;;17.83;14.73;;;16.30;99.90;;;;;;5151182;28;20050;-80
2022/05/07 13:13:34;;;;;;;17.70;15.43;;;16.30;99.90;;;;;;5152664;28;20451;-81
2022/05/07 13:16:07;;;;;;;19.33;15.85;;;16.20;99.90;;;;;;5134940;28;21056;-82
2022/05/07 13:18:39;;;;;;;20.05;16.02;;;16.40;99.90;;;;;;5153427;28;20057;-83
2022/05/07 13:21:12;;;;;;;17.27;14.38;;;16.60;99.90;;;;;;5148158;28;20054;-82
2022/05/07 13:23:45;;;;;;;16.17;13.07;;;16.70;99.90;;;;;;5156274;28;20054;-80
2022/05/07 13:26:17;;;;;;;14.93;12.70;;;16.90;99.90;;;;;;5147632;28;20042;-82
2022/05/07 13:29:11;;;;;;;16.10;13.07;;;17.00;99.90;;;;;;5141171;28;20478;-82
2022/05/07 13:31:44;;;;;;;17.17;14.25;;;17.10;99.90;;;;;;5146110;28;20047;-80
2022/05/07 13:34:16;;;;;;;15.43;13.15;;;17.20;99.90;;;;;;5145138;28;20062;-82
2022/05/07 13:36:49;;;;;;;14.77;13.18;;;17.40;99.90;;;;;;5145695;28;20073;-81
2022/05/07 13:39:21;;;;;;;19.15;12.90;;;17.40;99.90;;;;;;5140231;28;20062;-80
2022/05/07 13:41:54;;;;;;;14.75;12.57;;;17.40;99.90;;;;;;5145730;28;20053;-80
2022/05/07 13:44:27;;;;;;;14.40;12.10;;;17.20;99.90;;;;;;5150009;28;20495;-82
2022/05/07 13:47:03;;;;;;;11.30;9.90;;;16.90;99.90;;;;;;5149775;28;20043;-83